London, TX (76854)

10:57 AM CDT on September 26, 2016 (GMT -0500)
Yates, Texas | | Change Station

Elev 1696 ft 30.58 °N, 99.59 °W | Updated 9 minutes ago

Light Rain
Light Rain
62.6 °F
Feels Like 62.6 °F
N
0.0
Wind Variable Wind from ENE

Today
High -- | Low -- °F
--% Chance of Precip.
Yesterday
High -- | Low -- °F
Precip. -- in
Pressure 30.13 in
Visibility -9999.0 miles
Clouds Overcast 1100 ft
Dew Point 62 °F
Humidity 99%
Rainfall 0.19 in
Snow Depth Not available.
7:29 AM 7:29 PM
Waning Crescent, 18% visible
METAR KJCT 261551Z AUTO 04010KT -RA OVC011 17/17 A3021 RMK AO2 SLP203 P0005 T01720167
Pressure 30.13 in
Visibility -9999.0 miles
Clouds Overcast 1100 ft
Dew Point 62 °F
Humidity 99%
Rainfall 0.19 in
Snow Depth Not available.
7:29 AM 7:29 PM
Waning Crescent, 18% visible
METAR KJCT 261551Z AUTO 04010KT -RA OVC011 17/17 A3021 RMK AO2 SLP203 P0005 T01720167

10-Day Weather Forecast

Almanac

Astronomy

Sep. 26, 2016 Rise Set
Actual Time
Civil Twilight
Nautical Twilight
Astronomical Twilight
Moon
Length of Visible Light
Length of Day
Tomorrow will be .
, % of the Moon is Illuminated

Today's Extremes

State Highs State Lows

Community

WunderPhotos

Upload Photos

1,941,906 photos uploaded!

WunderBlog® & News

Nearby

Air Quality

  Air Quality AQ Index Pollutant
Not available.

Snow Depth

Station Depth Elevation

Earthquake Activity

City Distance Mag. Time & Date
Minimum magnitude displayed is 2.5.

Coastal Water Temperatures

Place Temperature

Stations

Nearby Weather Stations

Station Location Temp. Windchill Dew Point Humidity Wind Precip. Elev Updated Type
                   

Watches & Warnings

There are currently no watches in effect.